Time,TemperatureF,DewpointF,PressureIn,WindDirection,WindDirectionDegrees,WindSpeedMPH,WindSpeedGustMPH,Humidity,HourlyPrecipIn,Conditions,Clouds,dailyrainin,SoftwareType,DateUTC
2013-05-14 00:01:00,47.3,34.9,30.03,SW,234,0.0,0.0,62,0.00,,,0.00,LWC V2.00 B2112,2013-05-14 07:01:00,
2013-05-14 00:06:00,46.7,34.0,30.03,SW,234,0.0,0.0,61,0.00,,,0.00,LWC V2.00 B2112,2013-05-14 07:06:00,
2013-05-14 00:11:00,46.1,34.6,30.03,SW,234,0.0,1.0,64,0.00,,,0.00,LWC V2.00 B2112,2013-05-14 07:11:00,
2013-05-14 00:16:00,45.1,35.2,30.03,SSE,154,0.0,4.0,68,0.00,,,0.00,LWC V2.00 B2112,2013-05-14 07:16:00,
2013-05-14 00:21:00,44.6,34.0,30.03,SSE,154,0.0,0.0,66,0.00,,,0.00,LWC V2.00 B2112,2013-05-14 07:21:00,
2013-05-14 00:26:00,45.1,34.0,30.03,SE,136,0.0,0.0,65,0.00,,,0.00,LWC V2.00 B2112,2013-05-14 07:26:00,
2013-05-14 00:31:00,45.1,34.4,30.04,SE,136,0.0,0.0,66,0.00,,,0.00,LWC V2.00 B2112,2013-05-14 07:31:00,
2013-05-14 00:33:00,44.9,34.2,30.04,SE,136,0.0,0.0,66,0.00,,,0.00,LWC V2.00 B2112,2013-05-14 07:33:00,
2013-05-14 00:38:00,44.6,34.3,30.04,SE,136,0.0,0.0,67,0.00,,,0.00,LWC V2.00 B2112,2013-05-14 07:38:00,
2013-05-14 00:43:00,44.2,34.7,30.04,SE,136,0.0,0.0,69,0.00,,,0.00,LWC V2.00 B2112,2013-05-14 07:43:00,
2013-05-14 00:48:00,44.1,34.2,30.06,SE,136,0.0,0.0,68,0.00,,,0.00,LWC V2.00 B2112,2013-05-14 07:48:00,
2013-05-14 00:53:00,43.5,34.4,30.06,SE,136,0.0,0.0,70,0.00,,,0.00,LWC V2.00 B2112,2013-05-14 07:53:00,
2013-05-14 00:58:00,43.2,35.5,30.06,South,188,0.0,0.0,74,0.00,,,0.00,LWC V2.00 B2112,2013-05-14 07:58:00,
2013-05-14 01:03:00,42.5,34.8,30.06,South,186,1.0,2.0,74,0.00,,,0.00,LWC V2.00 B2112,2013-05-14 08:03:00,
2013-05-14 01:08:00,42.3,34.6,30.06,South,186,0.0,1.0,74,0.00,,,0.00,LWC V2.00 B2112,2013-05-14 08:08:00,
2013-05-14 01:13:00,43.1,34.3,30.06,SE,143,2.0,2.0,71,0.00,,,0.00,LWC V2.00 B2112,2013-05-14 08:13:00,
2013-05-14 01:18:00,43.3,35.6,30.06,SE,133,0.0,4.0,74,0.00,,,0.00,LWC V2.00 B2112,2013-05-14 08:18:00,
2013-05-14 01:23:00,44.2,34.3,30.06,South,174,1.0,7.0,68,0.00,,,0.00,LWC V2.00 B2112,2013-05-14 08:23:00,
2013-05-14 01:28:00,45.1,35.5,30.06,ESE,102,0.0,4.0,69,0.00,,,0.00,LWC V2.00 B2112,2013-05-14 08:28:00,
2013-05-14 01:33:00,45.4,35.8,30.07,ESE,109,0.0,1.0,69,0.00,,,0.00,LWC V2.00 B2112,2013-05-14 08:33:00,
2013-05-14 01:38:00,45.2,36.0,30.07,ESE,109,0.0,0.0,70,0.00,,,0.00,LWC V2.00 B2112,2013-05-14 08:38:00,
2013-05-14 01:43:00,44.8,36.3,30.07,ESE,109,0.0,0.0,72,0.00,,,0.00,LWC V2.00 B2112,2013-05-14 08:43:00,
2013-05-14 01:48:00,44.8,35.3,30.07,ESE,109,0.0,2.0,69,0.00,,,0.00,LWC V2.00 B2112,2013-05-14 08:48:00,
2013-05-14 01:53:00,45.4,35.8,30.07,ESE,104,0.0,4.0,69,0.00,,,0.00,LWC V2.00 B2112,2013-05-14 08:53:00,
2013-05-14 01:58:00,45.8,34.7,30.07,ESE,103,2.0,2.0,65,0.00,,,0.00,LWC V2.00 B2112,2013-05-14 08:58:00,
2013-05-14 02:03:00,46.0,34.9,30.07,West,265,0.0,0.0,65,0.00,,,0.00,LWC V2.00 B2112,2013-05-14 09:03:00,
2013-05-14 02:08:00,46.1,35.8,30.07,NNE,17,0.0,4.0,67,0.00,,,0.00,LWC V2.00 B2112,2013-05-14 09:08:00,
2013-05-14 02:13:00,46.4,35.3,30.07,NNE,30,0.0,0.0,65,0.00,,,0.00,LWC V2.00 B2112,2013-05-14 09:13:00,
2013-05-14 02:18:00,46.2,35.5,30.07,NE,37,0.0,1.0,66,0.00,,,0.00,LWC V2.00 B2112,2013-05-14 09:18:00,
2013-05-14 02:23:00,46.1,35.0,30.07,NW,313,1.0,1.0,65,0.00,,,0.00,LWC V2.00 B2112,2013-05-14 09:23:00,
2013-05-14 02:28:00,45.8,36.2,30.07,NW,313,0.0,0.0,69,0.00,,,0.00,LWC V2.00 B2112,2013-05-14 09:28:00,
2013-05-14 02:33:00,45.2,36.4,30.08,NW,313,0.0,0.0,71,0.00,,,0.00,LWC V2.00 B2112,2013-05-14 09:33:00,
2013-05-14 02:38:00,44.8,36.0,30.08,NW,313,0.0,0.0,71,0.00,,,0.00,LWC V2.00 B2112,2013-05-14 09:38:00,
2013-05-14 02:43:00,44.3,35.9,30.08,NW,313,0.0,0.0,72,0.00,,,0.00,LWC V2.00 B2112,2013-05-14 09:43:00,
2013-05-14 02:48:00,43.9,35.5,30.08,NW,313,0.0,0.0,72,0.00,,,0.00,LWC V2.00 B2112,2013-05-14 09:48:00,
2013-05-14 02:53:00,43.6,35.9,30.08,NW,313,0.0,0.0,74,0.00,,,0.00,LWC V2.00 B2112,2013-05-14 09:53:00,
2013-05-14 02:58:00,43.3,36.6,30.08,NW,313,0.0,0.0,77,0.00,,,0.00,LWC V2.00 B2112,2013-05-14 09:58:00,
2013-05-14 03:03:00,43.1,35.0,30.07,NW,313,0.0,2.0,73,0.00,,,0.00,LWC V2.00 B2112,2013-05-14 10:03:00,
2013-05-14 03:08:00,43.1,35.7,30.07,NW,313,0.0,2.0,75,0.00,,,0.00,LWC V2.00 B2112,2013-05-14 10:08:00,
2013-05-14 03:13:00,43.5,35.1,30.07,NW,308,1.0,6.0,72,0.00,,,0.00,LWC V2.00 B2112,2013-05-14 10:13:00,
2013-05-14 03:18:00,43.9,35.8,30.08,NW,308,0.0,0.0,73,0.00,,,0.00,LWC V2.00 B2112,2013-05-14 10:18:00,
2013-05-14 03:23:00,43.8,35.7,30.08,NW,308,0.0,0.0,73,0.00,,,0.00,LWC V2.00 B2112,2013-05-14 10:23:00,
2013-05-14 03:28:00,43.9,35.8,30.08,NW,308,0.0,4.0,73,0.00,,,0.00,LWC V2.00 B2112,2013-05-14 10:28:00,
2013-05-14 03:33:00,43.8,36.4,30.08,NW,308,0.0,0.0,75,0.00,,,0.00,LWC V2.00 B2112,2013-05-14 10:33:00,
2013-05-14 03:38:00,43.8,35.7,30.08,NW,308,0.0,0.0,73,0.00,,,0.00,LWC V2.00 B2112,2013-05-14 10:38:00,
2013-05-14 03:43:00,43.6,36.9,30.08,NW,308,0.0,0.0,77,0.00,,,0.00,LWC V2.00 B2112,2013-05-14 10:43:00,
2013-05-14 03:48:00,43.3,36.6,30.08,NW,308,0.0,0.0,77,0.00,,,0.00,LWC V2.00 B2112,2013-05-14 10:48:00,
2013-05-14 03:53:00,43.2,36.2,30.08,NW,308,0.0,0.0,76,0.00,,,0.00,LWC V2.00 B2112,2013-05-14 10:53:00,
2013-05-14 03:58:00,43.2,36.8,30.08,NW,308,0.0,0.0,78,0.00,,,0.00,LWC V2.00 B2112,2013-05-14 10:58:00,
2013-05-14 04:03:00,43.1,37.4,30.08,NW,308,0.0,1.0,80,0.00,,,0.00,LWC V2.00 B2112,2013-05-14 11:03:00,
2013-05-14 04:08:00,42.8,37.4,30.08,NW,308,0.0,0.0,81,0.00,,,0.00,LWC V2.00 B2112,2013-05-14 11:08:00,
2013-05-14 04:13:00,42.6,36.9,30.08,NW,308,0.0,0.0,80,0.00,,,0.00,LWC V2.00 B2112,2013-05-14 11:13:00,
2013-05-14 04:18:00,42.6,36.6,30.08,NW,308,0.0,0.0,79,0.00,,,0.00,LWC V2.00 B2112,2013-05-14 11:18:00,
2013-05-14 04:23:00,42.6,36.9,30.08,NW,308,0.0,0.0,80,0.00,,,0.00,LWC V2.00 B2112,2013-05-14 11:23:00,
2013-05-14 04:27:00,42.6,36.9,30.08,NW,308,0.0,0.0,80,0.00,,,0.00,LWC V2.00 B2112,2013-05-14 11:27:00,
2013-05-14 04:32:00,42.8,36.4,30.08,NW,308,0.0,1.0,78,0.00,,,0.00,LWC V2.00 B2112,2013-05-14 11:32:00,
2013-05-14 04:36:00,42.9,37.2,30.08,NW,308,0.0,0.0,80,0.00,,,0.00,LWC V2.00 B2112,2013-05-14 11:36:00,
2013-05-14 04:41:00,42.9,36.5,30.08,NW,308,0.0,0.0,78,0.00,,,0.00,LWC V2.00 B2112,2013-05-14 11:41:00,
2013-05-14 04:46:00,43.2,35.5,30.07,NW,306,0.0,0.0,74,0.00,,,0.00,LWC V2.00 B2112,2013-05-14 11:46:00,
2013-05-14 04:51:00,43.5,36.4,30.07,NW,306,0.0,1.0,76,0.00,,,0.00,LWC V2.00 B2112,2013-05-14 11:51:00,
2013-05-14 04:56:00,43.5,36.4,30.07,WSW,257,0.0,0.0,76,0.00,,,0.00,LWC V2.00 B2112,2013-05-14 11:56:00,
2013-05-14 05:01:00,43.8,36.4,30.07,SSE,165,0.0,0.0,75,0.00,,,0.00,LWC V2.00 B2112,2013-05-14 12:01:00,
2013-05-14 05:06:00,43.8,36.1,30.07,SSE,165,0.0,0.0,74,0.00,,,0.00,LWC V2.00 B2112,2013-05-14 12:06:00,
2013-05-14 05:11:00,44.2,36.1,30.07,SSE,167,1.0,1.0,73,0.00,,,0.00,LWC V2.00 B2112,2013-05-14 12:11:00,
2013-05-14 05:16:00,44.5,36.0,30.07,West,277,4.0,4.0,72,0.00,,,0.00,LWC V2.00 B2112,2013-05-14 12:16:00,
2013-05-14 05:21:00,44.8,34.5,30.07,NNW,336,1.0,2.0,67,0.00,,,0.00,LWC V2.00 B2112,2013-05-14 12:21:00,
2013-05-14 05:26:00,44.9,35.0,30.07,NNW,336,0.0,0.0,68,0.00,,,0.00,LWC V2.00 B2112,2013-05-14 12:26:00,
2013-05-14 05:31:00,44.8,35.6,30.06,NNW,336,0.0,0.0,70,0.00,,,0.00,LWC V2.00 B2112,2013-05-14 12:31:00,
2013-05-14 05:36:00,44.8,36.7,30.06,NNW,336,0.0,0.0,73,0.00,,,0.00,LWC V2.00 B2112,2013-05-14 12:36:00,
2013-05-14 05:41:00,44.5,36.7,30.06,NNW,336,0.0,0.0,74,0.00,,,0.00,LWC V2.00 B2112,2013-05-14 12:41:00,
2013-05-14 05:46:00,44.2,36.8,30.06,NNW,336,0.0,0.0,75,0.00,,,0.00,LWC V2.00 B2112,2013-05-14 12:46:00,
2013-05-14 05:51:00,44.2,37.1,30.06,NNW,336,0.0,0.0,76,0.00,,,0.00,LWC V2.00 B2112,2013-05-14 12:51:00,
2013-05-14 05:56:00,44.1,37.7,30.06,NNW,336,0.0,0.0,78,0.00,,,0.00,LWC V2.00 B2112,2013-05-14 12:56:00,
2013-05-14 06:01:00,43.9,37.5,30.06,NNW,336,0.0,0.0,78,0.00,,,0.00,LWC V2.00 B2112,2013-05-14 13:01:00,
2013-05-14 06:06:00,43.9,37.5,30.06,NNW,336,2.0,2.0,78,0.00,,,0.00,LWC V2.00 B2112,2013-05-14 13:06:00,
2013-05-14 06:11:00,43.9,37.2,30.06,NNW,336,0.0,0.0,77,0.00,,,0.00,LWC V2.00 B2112,2013-05-14 13:11:00,
2013-05-14 06:16:00,43.9,37.5,30.07,NNW,336,0.0,0.0,78,0.00,,,0.00,LWC V2.00 B2112,2013-05-14 13:16:00,
2013-05-14 06:21:00,43.9,37.2,30.07,NNW,336,0.0,0.0,77,0.00,,,0.00,LWC V2.00 B2112,2013-05-14 13:21:00,
2013-05-14 06:26:00,44.3,34.8,30.07,NNW,336,0.0,2.0,69,0.00,,,0.00,LWC V2.00 B2112,2013-05-14 13:26:00,
2013-05-14 06:31:00,44.9,34.2,30.06,SW,227,0.0,0.0,66,0.00,,,0.00,LWC V2.00 B2112,2013-05-14 13:31:00,
2013-05-14 06:36:00,45.4,35.8,30.06,SW,227,0.0,0.0,69,0.00,,,0.00,LWC V2.00 B2112,2013-05-14 13:36:00,
2013-05-14 06:41:00,45.5,34.8,30.06,SW,227,0.0,0.0,66,0.00,,,0.00,LWC V2.00 B2112,2013-05-14 13:41:00,
2013-05-14 06:46:00,45.8,35.1,30.07,SW,227,0.0,0.0,66,0.00,,,0.00,LWC V2.00 B2112,2013-05-14 13:46:00,
2013-05-14 06:51:00,46.1,34.2,30.07,SW,227,0.0,0.0,63,0.00,,,0.00,LWC V2.00 B2112,2013-05-14 13:51:00,
2013-05-14 06:56:00,46.4,34.9,30.07,WSW,239,0.0,2.0,64,0.00,,,0.00,LWC V2.00 B2112,2013-05-14 13:56:00,
2013-05-14 07:01:00,46.5,36.9,30.07,WSW,239,0.0,1.0,69,0.00,,,0.00,LWC V2.00 B2112,2013-05-14 14:01:00,
2013-05-14 07:06:00,46.7,34.8,30.07,NNE,20,0.0,0.0,63,0.00,,,0.00,LWC V2.00 B2112,2013-05-14 14:06:00,
2013-05-14 07:11:00,47.1,35.2,30.07,WSW,257,4.0,6.0,63,0.00,,,0.00,LWC V2.00 B2112,2013-05-14 14:11:00,
2013-05-14 07:16:00,47.4,35.8,30.07,West,263,1.0,2.0,64,0.00,,,0.00,LWC V2.00 B2112,2013-05-14 14:16:00,
2013-05-14 07:21:00,47.6,35.2,30.07,West,264,6.0,6.0,62,0.00,,,0.00,LWC V2.00 B2112,2013-05-14 14:21:00,
2013-05-14 07:26:00,47.7,34.5,30.07,NW,305,0.0,7.0,60,0.00,,,0.00,LWC V2.00 B2112,2013-05-14 14:26:00,
2013-05-14 07:31:00,48.0,35.2,30.07,WNW,291,4.0,6.0,61,0.00,,,0.00,LWC V2.00 B2112,2013-05-14 14:31:00,
2013-05-14 07:36:00,48.5,33.5,30.07,North,352,0.0,6.0,56,0.00,,,0.00,LWC V2.00 B2112,2013-05-14 14:36:00,
2013-05-14 07:41:00,48.9,33.0,30.07,North,352,0.0,1.0,54,0.00,,,0.00,LWC V2.00 B2112,2013-05-14 14:41:00,
2013-05-14 07:46:00,49.1,35.4,30.06,WNW,296,1.0,1.0,59,0.00,,,0.00,LWC V2.00 B2112,2013-05-14 14:46:00,
2013-05-14 07:51:00,49.4,34.4,30.06,WNW,296,0.0,1.0,56,0.00,,,0.00,LWC V2.00 B2112,2013-05-14 14:51:00,
2013-05-14 07:56:00,49.6,35.4,30.06,WNW,296,0.0,0.0,58,0.00,,,0.00,LWC V2.00 B2112,2013-05-14 14:56:00,
2013-05-14 08:01:00,50.4,36.6,30.07,WNW,296,0.0,0.0,59,0.00,,,0.00,LWC V2.00 B2112,2013-05-14 15:01:00,
2013-05-14 08:06:00,51.3,35.2,30.07,WNW,296,0.0,0.0,54,0.00,,,0.00,LWC V2.00 B2112,2013-05-14 15:06:00,
2013-05-14 08:11:00,51.7,34.6,30.07,WNW,296,0.0,0.0,52,0.00,,,0.00,LWC V2.00 B2112,2013-05-14 15:11:00,
2013-05-14 08:16:00,52.3,33.2,30.07,WNW,296,0.0,1.0,48,0.00,,,0.00,LWC V2.00 B2112,2013-05-14 15:16:00,
2013-05-14 08:21:00,53.3,34.1,30.07,WNW,296,0.0,0.0,48,0.00,,,0.00,LWC V2.00 B2112,2013-05-14 15:21:00,
2013-05-14 08:26:00,54.1,32.7,30.07,SE,138,0.0,2.0,44,0.00,,,0.00,LWC V2.00 B2112,2013-05-14 15:26:00,
2013-05-14 08:31:00,54.5,34.7,30.06,South,178,0.0,2.0,47,0.00,,,0.00,LWC V2.00 B2112,2013-05-14 15:31:00,
2013-05-14 08:36:00,54.8,35.0,30.06,SSE,154,1.0,1.0,47,0.00,,,0.00,LWC V2.00 B2112,2013-05-14 15:36:00,
2013-05-14 08:41:00,54.8,33.9,30.06,SSE,157,0.0,2.0,45,0.00,,,0.00,LWC V2.00 B2112,2013-05-14 15:41:00,
2013-05-14 08:46:00,55.3,34.3,30.06,SSE,158,0.0,1.0,45,0.00,,,0.00,LWC V2.00 B2112,2013-05-14 15:46:00,
2013-05-14 08:51:00,55.4,33.9,30.06,SSE,162,0.0,0.0,44,0.00,,,0.00,LWC V2.00 B2112,2013-05-14 15:51:00,
2013-05-14 08:56:00,55.6,34.0,30.06,SSE,162,0.0,1.0,44,0.00,,,0.00,LWC V2.00 B2112,2013-05-14 15:56:00,
2013-05-14 09:01:00,55.7,31.8,30.06,SSE,162,0.0,0.0,40,0.00,,,0.00,LWC V2.00 B2112,2013-05-14 16:01:00,
2013-05-14 09:06:00,55.7,33.6,30.06,SSE,162,0.0,4.0,43,0.00,,,0.00,LWC V2.00 B2112,2013-05-14 16:06:00,
2013-05-14 09:11:00,55.6,35.2,30.06,SE,127,0.0,0.0,46,0.00,,,0.00,LWC V2.00 B2112,2013-05-14 16:11:00,
2013-05-14 09:16:00,55.6,32.3,30.06,SE,127,0.0,0.0,41,0.00,,,0.00,LWC V2.00 B2112,2013-05-14 16:16:00,
2013-05-14 09:21:00,56.0,34.4,30.06,SE,127,0.0,0.0,44,0.00,,,0.00,LWC V2.00 B2112,2013-05-14 16:21:00,
2013-05-14 09:26:00,56.5,33.1,30.06,SE,127,0.0,1.0,41,0.00,,,0.00,LWC V2.00 B2112,2013-05-14 16:26:00,
2013-05-14 09:31:00,56.2,34.6,30.06,SE,133,0.0,0.0,44,0.00,,,0.00,LWC V2.00 B2112,2013-05-14 16:31:00,
2013-05-14 09:36:00,56.2,30.3,30.06,SE,133,0.0,0.0,37,0.00,,,0.00,LWC V2.00 B2112,2013-05-14 16:36:00,
2013-05-14 09:41:00,56.5,30.5,30.06,NW,323,0.0,6.0,37,0.00,,,0.00,LWC V2.00 B2112,2013-05-14 16:41:00,
2013-05-14 09:46:00,56.9,30.2,30.06,NW,316,0.0,4.0,36,0.00,,,0.00,LWC V2.00 B2112,2013-05-14 16:46:00,
2013-05-14 09:51:00,56.9,31.6,30.06,NNW,333,4.0,6.0,38,0.00,,,0.00,LWC V2.00 B2112,2013-05-14 16:51:00,
2013-05-14 09:56:00,57.6,29.4,30.06,NNW,333,0.0,0.0,34,0.00,,,0.00,LWC V2.00 B2112,2013-05-14 16:56:00,
2013-05-14 10:02:00,58.3,29.3,30.05,NNW,333,0.0,0.0,33,0.00,,,0.00,LWC V2.00 B2112,2013-05-14 17:02:00,
2013-05-14 10:07:00,58.4,29.4,30.05,NW,326,2.0,6.0,33,0.00,,,0.00,LWC V2.00 B2112,2013-05-14 17:07:00,
2013-05-14 10:12:00,58.0,30.5,30.05,NW,326,0.0,0.0,35,0.00,,,0.00,LWC V2.00 B2112,2013-05-14 17:12:00,
2013-05-14 10:17:00,57.8,27.4,30.04,NW,319,0.0,1.0,31,0.00,,,0.00,LWC V2.00 B2112,2013-05-14 17:17:00,
2013-05-14 10:22:00,58.1,29.9,30.04,NW,319,0.0,1.0,34,0.00,,,0.00,LWC V2.00 B2112,2013-05-14 17:22:00,
2013-05-14 10:27:00,58.9,28.3,30.04,NW,313,0.0,4.0,31,0.00,,,0.00,LWC V2.00 B2112,2013-05-14 17:27:00,
2013-05-14 10:32:00,58.9,25.9,30.04,NW,311,0.0,2.0,28,0.00,,,0.00,LWC V2.00 B2112,2013-05-14 17:32:00,
2013-05-14 10:37:00,59.2,26.1,30.04,NW,312,0.0,2.0,28,0.00,,,0.00,LWC V2.00 B2112,2013-05-14 17:37:00,
2013-05-14 10:42:00,59.5,30.4,30.04,NNW,329,2.0,8.0,33,0.00,,,0.00,LWC V2.00 B2112,2013-05-14 17:42:00,
2013-05-14 10:47:00,59.6,31.2,30.03,NNW,328,0.0,1.0,34,0.00,,,0.00,LWC V2.00 B2112,2013-05-14 17:47:00,
2013-05-14 10:52:00,60.1,30.1,30.03,SSW,210,1.0,4.0,32,0.00,,,0.00,LWC V2.00 B2112,2013-05-14 17:52:00,
2013-05-14 10:57:00,60.7,30.7,30.03,SE,131,1.0,4.0,32,0.00,,,0.00,LWC V2.00 B2112,2013-05-14 17:57:00,
2013-05-14 11:02:00,61.0,28.5,30.03,SE,141,0.0,2.0,29,0.00,,,0.00,LWC V2.00 B2112,2013-05-14 18:02:00,
2013-05-14 11:07:00,60.7,29.1,30.03,ESE,114,0.0,7.0,30,0.00,,,0.00,LWC V2.00 B2112,2013-05-14 18:07:00,
2013-05-14 11:12:00,60.1,29.4,30.03,SE,134,0.0,6.0,31,0.00,,,0.00,LWC V2.00 B2112,2013-05-14 18:12:00,
2013-05-14 11:17:00,60.7,29.1,30.03,SSE,160,0.0,4.0,30,0.00,,,0.00,LWC V2.00 B2112,2013-05-14 18:17:00,
2013-05-14 11:22:00,60.9,29.3,30.03,SE,134,2.0,4.0,30,0.00,,,0.00,LWC V2.00 B2112,2013-05-14 18:22:00,
2013-05-14 11:27:00,61.3,30.4,30.03,South,169,0.0,1.0,31,0.00,,,0.00,LWC V2.00 B2112,2013-05-14 18:27:00,
2013-05-14 11:32:00,61.2,34.7,30.03,ESE,117,2.0,10.0,37,0.00,,,0.00,LWC V2.00 B2112,2013-05-14 18:32:00,
2013-05-14 11:37:00,60.5,32.7,30.03,SE,126,1.0,6.0,35,0.00,,,0.00,LWC V2.00 B2112,2013-05-14 18:37:00,
2013-05-14 11:42:00,61.3,34.8,30.03,SSE,151,4.0,4.0,37,0.00,,,0.00,LWC V2.00 B2112,2013-05-14 18:42:00,
2013-05-14 11:47:00,61.3,29.6,30.02,SE,128,0.0,4.0,30,0.00,,,0.00,LWC V2.00 B2112,2013-05-14 18:47:00,
2013-05-14 11:52:00,62.0,32.6,30.02,SE,124,0.0,6.0,33,0.00,,,0.00,LWC V2.00 B2112,2013-05-14 18:52:00,
2013-05-14 11:57:00,61.6,32.2,30.02,ESE,123,1.0,10.0,33,0.00,,,0.00,LWC V2.00 B2112,2013-05-14 18:57:00,
2013-05-14 12:02:00,61.6,30.7,30.02,ESE,123,0.0,4.0,31,0.00,,,0.00,LWC V2.00 B2112,2013-05-14 19:02:00,
2013-05-14 12:07:00,61.5,29.8,30.02,ENE,72,0.0,0.0,30,0.00,,,0.00,LWC V2.00 B2112,2013-05-14 19:07:00,
2013-05-14 12:12:00,62.1,31.9,30.02,ESE,104,0.0,1.0,32,0.00,,,0.00,LWC V2.00 B2112,2013-05-14 19:12:00,
2013-05-14 12:17:00,62.6,35.3,30.01,ESE,120,2.0,4.0,36,0.00,,,0.00,LWC V2.00 B2112,2013-05-14 19:17:00,
2013-05-14 12:22:00,62.6,30.7,30.01,South,185,0.0,1.0,30,0.00,,,0.00,LWC V2.00 B2112,2013-05-14 19:22:00,
2013-05-14 12:27:00,62.7,35.4,30.01,SSE,151,1.0,6.0,36,0.00,,,0.00,LWC V2.00 B2112,2013-05-14 19:27:00,
2013-05-14 12:32:00,62.6,30.7,30.01,East,93,0.0,6.0,30,0.00,,,0.00,LWC V2.00 B2112,2013-05-14 19:32:00,
2013-05-14 12:37:00,63.1,32.0,30.01,SE,127,0.0,1.0,31,0.00,,,0.00,LWC V2.00 B2112,2013-05-14 19:37:00,
2013-05-14 12:42:00,63.1,30.3,30.01,ENE,73,1.0,4.0,29,0.00,,,0.00,LWC V2.00 B2112,2013-05-14 19:42:00,
2013-05-14 12:47:00,62.7,33.2,30.00,SE,127,2.0,7.0,33,0.00,,,0.00,LWC V2.00 B2112,2013-05-14 19:47:00,
2013-05-14 12:52:00,62.7,30.0,30.00,SE,141,2.0,2.0,29,0.00,,,0.00,LWC V2.00 B2112,2013-05-14 19:52:00,
2013-05-14 12:57:00,63.1,30.3,30.00,SSE,148,0.0,4.0,29,0.00,,,0.00,LWC V2.00 B2112,2013-05-14 19:57:00,
2013-05-14 13:02:00,64.0,31.1,29.99,South,186,4.0,6.0,29,0.00,,,0.00,LWC V2.00 B2112,2013-05-14 20:02:00,
2013-05-14 13:07:00,64.3,28.7,29.99,ENE,72,1.0,2.0,26,0.00,,,0.00,LWC V2.00 B2112,2013-05-14 20:07:00,
2013-05-14 13:12:00,63.5,29.8,29.99,ESE,116,0.0,8.0,28,0.00,,,0.00,LWC V2.00 B2112,2013-05-14 20:12:00,
2013-05-14 13:17:00,63.4,28.8,29.99,ESE,113,6.0,8.0,27,0.00,,,0.00,LWC V2.00 B2112,2013-05-14 20:17:00,
2013-05-14 13:22:00,63.4,27.9,29.99,ENE,68,1.0,6.0,26,0.00,,,0.00,LWC V2.00 B2112,2013-05-14 20:22:00,
2013-05-14 13:27:00,63.4,30.6,29.99,ESE,114,0.0,0.0,29,0.00,,,0.00,LWC V2.00 B2112,2013-05-14 20:27:00,
2013-05-14 13:32:00,64.2,32.9,29.98,SSE,154,1.0,7.0,31,0.00,,,0.00,LWC V2.00 B2112,2013-05-14 20:32:00,
2013-05-14 13:37:00,65.0,30.2,29.98,South,169,1.0,2.0,27,0.00,,,0.00,LWC V2.00 B2112,2013-05-14 20:37:00,
2013-05-14 13:42:00,65.5,28.7,29.98,SSE,167,0.0,0.0,25,0.00,,,0.00,LWC V2.00 B2112,2013-05-14 20:42:00,
2013-05-14 13:47:00,65.6,31.6,29.97,SE,130,0.0,1.0,28,0.00,,,0.00,LWC V2.00 B2112,2013-05-14 20:47:00,
2013-05-14 13:52:00,65.6,29.8,29.97,South,181,1.0,8.0,26,0.00,,,0.00,LWC V2.00 B2112,2013-05-14 20:52:00,
2013-05-14 13:57:00,65.6,29.8,29.97,ESE,116,0.0,6.0,26,0.00,,,0.00,LWC V2.00 B2112,2013-05-14 20:57:00,
2013-05-14 14:02:00,65.5,27.8,29.97,NE,47,1.0,2.0,24,0.00,,,0.00,LWC V2.00 B2112,2013-05-14 21:02:00,
2013-05-14 14:07:00,65.6,28.8,29.97,NNE,27,6.0,9.0,25,0.00,,,0.00,LWC V2.00 B2112,2013-05-14 21:07:00,
2013-05-14 14:12:00,65.5,23.4,29.97,WSW,248,4.0,6.0,20,0.00,,,0.00,LWC V2.00 B2112,2013-05-14 21:12:00,
2013-05-14 14:17:00,65.6,25.7,29.97,West,272,8.0,8.0,22,0.00,,,0.00,LWC V2.00 B2112,2013-05-14 21:17:00,
2013-05-14 14:22:00,65.2,24.3,29.97,NNW,332,2.0,9.0,21,0.00,,,0.00,LWC V2.00 B2112,2013-05-14 21:22:00,
2013-05-14 14:27:00,65.5,23.4,29.97,WNW,292,2.0,2.0,20,0.00,,,0.00,LWC V2.00 B2112,2013-05-14 21:27:00,
2013-05-14 14:32:00,65.5,23.4,29.97,WNW,288,7.0,13.0,20,0.00,,,0.00,LWC V2.00 B2112,2013-05-14 21:32:00,
2013-05-14 14:37:00,65.6,21.0,29.97,NNW,339,6.0,11.0,18,0.00,,,0.00,LWC V2.00 B2112,2013-05-14 21:37:00,
2013-05-14 14:42:00,65.8,21.1,29.97,NW,325,8.0,8.0,18,0.00,,,0.00,LWC V2.00 B2112,2013-05-14 21:42:00,
2013-05-14 14:47:00,65.8,19.8,29.97,WNW,292,10.0,10.0,17,0.00,,,0.00,LWC V2.00 B2112,2013-05-14 21:47:00,
2013-05-14 14:52:00,65.6,19.6,29.97,NW,309,9.0,17.0,17,0.00,,,0.00,LWC V2.00 B2112,2013-05-14 21:52:00,
2013-05-14 14:57:00,65.6,25.7,29.97,NNE,14,6.0,9.0,22,0.00,,,0.00,LWC V2.00 B2112,2013-05-14 21:57:00,
2013-05-14 15:02:00,66.0,18.5,29.96,NW,313,6.0,8.0,16,0.00,,,0.00,LWC V2.00 B2112,2013-05-14 22:02:00,
2013-05-14 15:07:00,66.0,22.6,29.96,ENE,69,0.0,2.0,19,0.00,,,0.00,LWC V2.00 B2112,2013-05-14 22:07:00,
2013-05-14 15:12:00,65.8,23.6,29.96,NW,313,2.0,14.0,20,0.00,,,0.00,LWC V2.00 B2112,2013-05-14 22:12:00,
2013-05-14 15:17:00,65.6,24.6,29.96,NW,308,10.0,14.0,21,0.00,,,0.00,LWC V2.00 B2112,2013-05-14 22:17:00,
2013-05-14 15:22:00,65.5,22.2,29.96,NNW,339,7.0,17.0,19,0.00,,,0.00,LWC V2.00 B2112,2013-05-14 22:22:00,
2013-05-14 15:27:00,65.5,24.5,29.96,NNW,336,9.0,16.0,21,0.00,,,0.00,LWC V2.00 B2112,2013-05-14 22:27:00,
2013-05-14 15:32:00,65.5,20.9,29.96,NNE,30,10.0,18.0,18,0.00,,,0.00,LWC V2.00 B2112,2013-05-14 22:32:00,
2013-05-14 15:37:00,65.6,23.5,29.96,North,356,9.0,15.0,20,0.00,,,0.00,LWC V2.00 B2112,2013-05-14 22:37:00,
2013-05-14 15:42:00,65.5,22.2,29.96,NNW,333,9.0,18.0,19,0.00,,,0.00,LWC V2.00 B2112,2013-05-14 22:42:00,
2013-05-14 15:47:00,65.6,23.5,29.96,NW,304,9.0,14.0,20,0.00,,,0.00,LWC V2.00 B2112,2013-05-14 22:47:00,
2013-05-14 15:52:00,65.6,26.8,29.96,WNW,288,4.0,11.0,23,0.00,,,0.00,LWC V2.00 B2112,2013-05-14 22:52:00,
2013-05-14 15:57:00,65.6,24.6,29.96,NE,34,8.0,8.0,21,0.00,,,0.00,LWC V2.00 B2112,2013-05-14 22:57:00,
2013-05-14 16:02:00,65.6,24.6,29.96,NNW,343,7.0,17.0,21,0.00,,,0.00,LWC V2.00 B2112,2013-05-14 23:02:00,
2013-05-14 16:07:00,65.5,23.4,29.96,NW,323,11.0,13.0,20,0.00,,,0.00,LWC V2.00 B2112,2013-05-14 23:07:00,
2013-05-14 16:12:00,65.6,23.5,29.96,NNW,335,6.0,13.0,20,0.00,,,0.00,LWC V2.00 B2112,2013-05-14 23:12:00,
2013-05-14 16:17:00,66.0,22.6,29.96,North,353,16.0,16.0,19,0.00,,,0.00,LWC V2.00 B2112,2013-05-14 23:17:00,
2013-05-14 16:22:00,66.1,30.2,29.96,NW,308,8.0,8.0,26,0.00,,,0.00,LWC V2.00 B2112,2013-05-14 23:22:00,
2013-05-14 16:27:00,65.8,25.9,29.96,NNW,339,8.0,10.0,22,0.00,,,0.00,LWC V2.00 B2112,2013-05-14 23:27:00,
2013-05-14 16:32:00,65.8,25.9,29.95,NW,315,9.0,13.0,22,0.00,,,0.00,LWC V2.00 B2112,2013-05-14 23:32:00,
2013-05-14 16:37:00,65.3,25.5,29.95,NW,312,7.0,13.0,22,0.00,,,0.00,LWC V2.00 B2112,2013-05-14 23:37:00,
2013-05-14 16:42:00,65.6,23.5,29.95,NNE,20,1.0,1.0,20,0.00,,,0.00,LWC V2.00 B2112,2013-05-14 23:42:00,
2013-05-14 16:47:00,65.5,23.4,29.95,North,359,9.0,14.0,20,0.00,,,0.00,LWC V2.00 B2112,2013-05-14 23:47:00,
2013-05-14 16:52:00,65.3,22.0,29.95,WSW,247,6.0,10.0,19,0.00,,,0.00,LWC V2.00 B2112,2013-05-14 23:52:00,
2013-05-14 16:57:00,65.6,21.0,29.95,NNW,332,2.0,14.0,18,0.00,,,0.00,LWC V2.00 B2112,2013-05-14 23:57:00,
2013-05-14 17:02:00,65.6,23.5,29.94,North,354,4.0,13.0,20,0.00,,,0.00,LWC V2.00 B2112,2013-05-15 00:02:00,
2013-05-14 17:07:00,65.8,19.8,29.94,NW,326,13.0,14.0,17,0.00,,,0.00,LWC V2.00 B2112,2013-05-15 00:07:00,
2013-05-14 17:12:00,65.5,23.4,29.94,NNW,344,8.0,11.0,20,0.00,,,0.00,LWC V2.00 B2112,2013-05-15 00:12:00,
2013-05-14 17:17:00,65.6,22.2,29.94,NW,322,4.0,11.0,19,0.00,,,0.00,LWC V2.00 B2112,2013-05-15 00:17:00,
2013-05-14 17:22:00,65.8,24.8,29.94,WNW,285,10.0,10.0,21,0.00,,,0.00,LWC V2.00 B2112,2013-05-15 00:22:00,
2013-05-14 17:27:00,65.5,23.4,29.94,NW,305,7.0,13.0,20,0.00,,,0.00,LWC V2.00 B2112,2013-05-15 00:27:00,
2013-05-14 17:32:00,65.5,23.4,29.94,NW,320,6.0,10.0,20,0.00,,,0.00,LWC V2.00 B2112,2013-05-15 00:32:00,
2013-05-14 17:37:00,65.8,23.6,29.94,NW,319,0.0,15.0,20,0.00,,,0.00,LWC V2.00 B2112,2013-05-15 00:37:00,
2013-05-14 17:42:00,66.0,23.8,29.94,NW,306,10.0,10.0,20,0.00,,,0.00,LWC V2.00 B2112,2013-05-15 00:42:00,
2013-05-14 17:47:00,65.3,25.5,29.94,WNW,302,0.0,9.0,22,0.00,,,0.00,LWC V2.00 B2112,2013-05-15 00:47:00,
2013-05-14 17:52:00,65.6,26.8,29.94,NNW,336,4.0,6.0,23,0.00,,,0.00,LWC V2.00 B2112,2013-05-15 00:52:00,
2013-05-14 17:57:00,65.8,23.6,29.94,NNW,344,4.0,8.0,20,0.00,,,0.00,LWC V2.00 B2112,2013-05-15 00:57:00,
2013-05-14 18:02:00,66.0,23.8,29.94,NW,316,4.0,10.0,20,0.00,,,0.00,LWC V2.00 B2112,2013-05-15 01:02:00,
2013-05-14 18:07:00,65.5,26.7,29.94,West,268,4.0,6.0,23,0.00,,,0.00,LWC V2.00 B2112,2013-05-15 01:07:00,
2013-05-14 18:12:00,65.3,25.5,29.94,NNW,329,7.0,8.0,22,0.00,,,0.00,LWC V2.00 B2112,2013-05-15 01:12:00,
2013-05-14 18:17:00,65.0,26.3,29.94,NNW,328,8.0,14.0,23,0.00,,,0.00,LWC V2.00 B2112,2013-05-15 01:17:00,
2013-05-14 18:22:00,64.7,23.9,29.94,NW,305,6.0,8.0,21,0.00,,,0.00,LWC V2.00 B2112,2013-05-15 01:22:00,
2013-05-14 18:27:00,64.7,26.0,29.94,West,264,6.0,7.0,23,0.00,,,0.00,LWC V2.00 B2112,2013-05-15 01:27:00,
2013-05-14 18:32:00,64.3,22.4,29.94,WNW,285,7.0,8.0,20,0.00,,,0.00,LWC V2.00 B2112,2013-05-15 01:32:00,
2013-05-14 18:37:00,64.5,22.5,29.94,North,353,6.0,9.0,20,0.00,,,0.00,LWC V2.00 B2112,2013-05-15 01:37:00,
2013-05-14 18:42:00,64.2,26.7,29.94,North,0,0.0,9.0,24,0.00,,,0.00,LWC V2.00 B2112,2013-05-15 01:42:00,
2013-05-14 18:47:00,63.9,29.3,29.94,WNW,289,4.0,6.0,27,0.00,,,0.00,LWC V2.00 B2112,2013-05-15 01:47:00,
2013-05-14 18:52:00,63.9,29.3,29.94,NNW,337,0.0,0.0,27,0.00,,,0.00,LWC V2.00 B2112,2013-05-15 01:52:00,
2013-05-14 18:57:00,62.4,27.1,29.94,West,263,6.0,6.0,26,0.00,,,0.00,LWC V2.00 B2112,2013-05-15 01:57:00,
2013-05-14 19:02:00,61.8,26.6,29.95,ENE,64,0.0,6.0,26,0.00,,,0.00,LWC V2.00 B2112,2013-05-15 02:02:00,
2013-05-14 19:07:00,61.5,26.3,29.95,NNE,16,0.0,8.0,26,0.00,,,0.00,LWC V2.00 B2112,2013-05-15 02:07:00,
2013-05-14 19:12:00,61.5,26.3,29.95,NW,322,6.0,7.0,26,0.00,,,0.00,LWC V2.00 B2112,2013-05-15 02:12:00,
2013-05-14 19:17:00,61.3,27.0,29.95,NW,323,0.0,1.0,27,0.00,,,0.00,LWC V2.00 B2112,2013-05-15 02:17:00,
2013-05-14 19:22:00,61.0,28.5,29.95,NW,323,0.0,2.0,29,0.00,,,0.00,LWC V2.00 B2112,2013-05-15 02:22:00,
2013-05-14 19:27:00,60.5,30.5,29.95,East,83,2.0,6.0,32,0.00,,,0.00,LWC V2.00 B2112,2013-05-15 02:27:00,
2013-05-14 19:32:00,60.7,26.5,29.95,North,354,6.0,6.0,27,0.00,,,0.00,LWC V2.00 B2112,2013-05-15 02:32:00,
2013-05-14 19:37:00,60.7,27.4,29.95,North,354,0.0,6.0,28,0.00,,,0.00,LWC V2.00 B2112,2013-05-15 02:37:00,
2013-05-14 19:42:00,60.4,27.1,29.95,North,357,0.0,4.0,28,0.00,,,0.00,LWC V2.00 B2112,2013-05-15 02:42:00,
2013-05-14 19:47:00,60.1,28.6,29.95,NW,323,2.0,2.0,30,0.00,,,0.00,LWC V2.00 B2112,2013-05-15 02:47:00,
2013-05-14 19:52:00,59.5,27.2,29.95,NW,325,2.0,7.0,29,0.00,,,0.00,LWC V2.00 B2112,2013-05-15 02:52:00,
2013-05-14 19:57:00,58.4,35.4,29.95,NW,325,0.0,1.0,42,0.00,,,0.00,LWC V2.00 B2112,2013-05-15 02:57:00,
2013-05-14 20:02:00,57.8,33.0,29.96,NE,34,0.0,6.0,39,0.00,,,0.00,LWC V2.00 B2112,2013-05-15 03:02:00,
2013-05-14 20:07:00,57.0,31.6,29.96,WNW,287,0.0,1.0,38,0.00,,,0.00,LWC V2.00 B2112,2013-05-15 03:07:00,
2013-05-14 20:12:00,56.3,32.3,29.96,WNW,287,0.0,0.0,40,0.00,,,0.00,LWC V2.00 B2112,2013-05-15 03:12:00,
2013-05-14 20:17:00,55.4,34.4,29.96,WNW,287,0.0,0.0,45,0.00,,,0.00,LWC V2.00 B2112,2013-05-15 03:17:00,
2013-05-14 20:22:00,54.7,33.8,29.96,WNW,287,0.0,0.0,45,0.00,,,0.00,LWC V2.00 B2112,2013-05-15 03:22:00,
2013-05-14 20:27:00,53.9,35.2,29.96,WNW,287,0.0,0.0,49,0.00,,,0.00,LWC V2.00 B2112,2013-05-15 03:27:00,
2013-05-14 20:32:00,53.1,35.5,29.97,WNW,287,0.0,0.0,51,0.00,,,0.00,LWC V2.00 B2112,2013-05-15 03:32:00,
2013-05-14 20:37:00,52.5,33.9,29.97,WNW,287,0.0,0.0,49,0.00,,,0.00,LWC V2.00 B2112,2013-05-15 03:37:00,
2013-05-14 20:42:00,51.9,35.3,29.97,WNW,287,0.0,0.0,53,0.00,,,0.00,LWC V2.00 B2112,2013-05-15 03:42:00,
2013-05-14 20:47:00,51.3,36.6,29.97,WNW,287,0.0,0.0,57,0.00,,,0.00,LWC V2.00 B2112,2013-05-15 03:47:00,
2013-05-14 20:52:00,50.7,36.0,29.97,WNW,287,0.0,0.0,57,0.00,,,0.00,LWC V2.00 B2112,2013-05-15 03:52:00,
2013-05-14 20:57:00,50.2,36.4,29.97,NW,325,0.0,4.0,59,0.00,,,0.00,LWC V2.00 B2112,2013-05-15 03:57:00,
2013-05-14 21:01:00,49.8,38.1,29.98,WSW,254,0.0,2.0,64,0.00,,,0.00,LWC V2.00 B2112,2013-05-15 04:01:00,
2013-05-14 21:06:00,49.4,36.1,29.98,West,261,2.0,2.0,60,0.00,,,0.00,LWC V2.00 B2112,2013-05-15 04:06:00,
2013-05-14 21:11:00,49.2,35.5,29.98,WNW,287,0.0,0.0,59,0.00,,,0.00,LWC V2.00 B2112,2013-05-15 04:11:00,
2013-05-14 21:16:00,49.5,31.6,29.98,NNW,330,0.0,7.0,50,0.00,,,0.00,LWC V2.00 B2112,2013-05-15 04:16:00,
2013-05-14 21:21:00,51.0,33.0,29.98,WSW,250,0.0,1.0,50,0.00,,,0.00,LWC V2.00 B2112,2013-05-15 04:21:00,
2013-05-14 21:26:00,51.7,31.6,29.98,WNW,291,0.0,0.0,46,0.00,,,0.00,LWC V2.00 B2112,2013-05-15 04:26:00,
2013-05-14 21:31:00,52.8,32.6,29.98,SW,233,2.0,8.0,46,0.00,,,0.00,LWC V2.00 B2112,2013-05-15 04:31:00,
2013-05-14 21:36:00,53.1,32.9,29.98,WSW,248,0.0,0.0,46,0.00,,,0.00,LWC V2.00 B2112,2013-05-15 04:36:00,
2013-05-14 21:41:00,53.6,31.7,29.98,NW,313,0.0,6.0,43,0.00,,,0.00,LWC V2.00 B2112,2013-05-15 04:41:00,
2013-05-14 21:46:00,53.1,31.8,29.98,NW,313,0.0,0.0,44,0.00,,,0.00,LWC V2.00 B2112,2013-05-15 04:46:00,
2013-05-14 21:51:00,52.6,31.9,29.98,NW,313,0.0,0.0,45,0.00,,,0.00,LWC V2.00 B2112,2013-05-15 04:51:00,
2013-05-14 21:56:00,52.0,34.4,29.98,NW,313,0.0,0.0,51,0.00,,,0.00,LWC V2.00 B2112,2013-05-15 04:56:00,
2013-05-14 22:01:00,51.3,33.3,29.98,NW,313,0.0,0.0,50,0.00,,,0.00,LWC V2.00 B2112,2013-05-15 05:01:00,
2013-05-14 22:06:00,50.8,33.3,29.98,NW,313,0.0,0.0,51,0.00,,,0.00,LWC V2.00 B2112,2013-05-15 05:06:00,
2013-05-14 22:11:00,49.6,34.6,29.98,NW,313,0.0,0.0,56,0.00,,,0.00,LWC V2.00 B2112,2013-05-15 05:11:00,
2013-05-14 22:16:00,49.1,35.4,29.98,NW,313,0.0,0.0,59,0.00,,,0.00,LWC V2.00 B2112,2013-05-15 05:16:00,
2013-05-14 22:21:00,48.5,34.8,29.98,NW,313,0.0,0.0,59,0.00,,,0.00,LWC V2.00 B2112,2013-05-15 05:21:00,
2013-05-14 22:26:00,48.2,37.4,29.98,NW,313,0.0,0.0,66,0.00,,,0.00,LWC V2.00 B2112,2013-05-15 05:26:00,
2013-05-14 22:31:00,47.6,36.0,29.98,NW,313,0.0,0.0,64,0.00,,,0.00,LWC V2.00 B2112,2013-05-15 05:31:00,
2013-05-14 22:36:00,47.1,35.6,29.98,NW,313,0.0,0.0,64,0.00,,,0.00,LWC V2.00 B2112,2013-05-15 05:36:00,
2013-05-14 22:41:00,46.7,36.3,29.98,NW,313,0.0,0.0,67,0.00,,,0.00,LWC V2.00 B2112,2013-05-15 05:41:00,
2013-05-14 22:46:00,46.5,36.1,29.98,NW,313,0.0,0.0,67,0.00,,,0.00,LWC V2.00 B2112,2013-05-15 05:46:00,
2013-05-14 22:51:00,46.2,35.9,29.98,NW,313,0.0,0.0,67,0.00,,,0.00,LWC V2.00 B2112,2013-05-15 05:51:00,
2013-05-14 22:56:00,46.0,34.9,29.98,NW,313,0.0,0.0,65,0.00,,,0.00,LWC V2.00 B2112,2013-05-15 05:56:00,
2013-05-14 23:01:00,46.0,34.5,29.98,NW,313,0.0,0.0,64,0.00,,,0.00,LWC V2.00 B2112,2013-05-15 06:01:00,
2013-05-14 23:06:00,46.1,36.1,29.98,NW,313,0.0,1.0,68,0.00,,,0.00,LWC V2.00 B2112,2013-05-15 06:06:00,
2013-05-14 23:11:00,46.5,35.4,29.98,NW,313,0.0,0.0,65,0.00,,,0.00,LWC V2.00 B2112,2013-05-15 06:11:00,
2013-05-14 23:16:00,46.7,34.4,29.98,NW,313,0.0,0.0,62,0.00,,,0.00,LWC V2.00 B2112,2013-05-15 06:16:00,
2013-05-14 23:21:00,46.5,35.0,29.98,NW,313,0.0,0.0,64,0.00,,,0.00,LWC V2.00 B2112,2013-05-15 06:21:00,
2013-05-14 23:26:00,46.5,34.6,29.98,NW,313,0.0,0.0,63,0.00,,,0.00,LWC V2.00 B2112,2013-05-15 06:26:00,
2013-05-14 23:31:00,46.4,37.5,29.99,NW,313,1.0,2.0,71,0.00,,,0.00,LWC V2.00 B2112,2013-05-15 06:31:00,
2013-05-14 23:36:00,46.1,36.1,29.99,NW,313,0.0,2.0,68,0.00,,,0.00,LWC V2.00 B2112,2013-05-15 06:36:00,
2013-05-14 23:41:00,45.8,35.5,29.99,NW,313,0.0,2.0,67,0.00,,,0.00,LWC V2.00 B2112,2013-05-15 06:41:00,
2013-05-14 23:46:00,45.7,36.5,29.99,NW,313,0.0,0.0,70,0.00,,,0.00,LWC V2.00 B2112,2013-05-15 06:46:00,
2013-05-14 23:51:00,45.5,35.6,29.99,NW,313,0.0,0.0,68,0.00,,,0.00,LWC V2.00 B2112,2013-05-15 06:51:00,
2013-05-14 23:56:00,45.5,34.4,29.99,NW,313,1.0,4.0,65,0.00,,,0.00,LWC V2.00 B2112,2013-05-15 06:56:00,